Limon High School, Colorado
Current Conditions -  °F | °C
As of 8:55 PM on Wednesday 22 Oct 2014 (Local Time) from KLIC Reporting Station
Broken Clouds Broken Clouds  
Wind Chill: 47°   Ceiling: 10000
Heat Index: 47°   Visibility: 10mi
Dew Point: 45°   Wind: 0mph
Humidity: 93%   Direction: NA
Pressure: 30.16"   Gusts: NA
Location:  39.26873°N, 103.6892°W
Report Text: KLIC 230255Z AUTO 00000KT 10SM FEW080 BKN100 08/07 A3016 RMK AO2 SLP179 T00830072 51014
Loading
Personal Weather Stations






























Interactive Weather Map
Tropical Storm Tracking
New forecast layout! Learn more

10-Day Weather Forecast

Advertisements
Track Severe Weather on mobile